sensor_id;sensor_type;location;lat;lon;timestamp;temperature;humidity
16505;HTU21D;8365;51.030;4.696;2023-07-22T00:00:59;16.79;109.11
16505;HTU21D;8365;51.030;4.696;2023-07-22T00:03:29;16.88;109.10
16505;HTU21D;8365;51.030;4.696;2023-07-22T00:06:07;16.76;109.46
16505;HTU21D;8365;51.030;4.696;2023-07-22T00:08:38;16.86;109.20
16505;HTU21D;8365;51.030;4.696;2023-07-22T00:11:09;16.58;111.19
16505;HTU21D;8365;51.030;4.696;2023-07-22T00:13:39;16.79;109.05
16505;HTU21D;8365;51.030;4.696;2023-07-22T00:16:10;16.76;109.57
16505;HTU21D;8365;51.030;4.696;2023-07-22T00:18:41;16.82;108.83
16505;HTU21D;8365;51.030;4.696;2023-07-22T00:21:11;16.72;109.22
16505;HTU21D;8365;51.030;4.696;2023-07-22T00:23:44;16.67;109.42
16505;HTU21D;8365;51.030;4.696;2023-07-22T00:26:16;16.66;109.23
16505;HTU21D;8365;51.030;4.696;2023-07-22T00:28:46;16.67;107.70
16505;HTU21D;8365;51.030;4.696;2023-07-22T00:31:17;16.67;108.23
16505;HTU21D;8365;51.030;4.696;2023-07-22T00:33:50;16.79;107.40
16505;HTU21D;8365;51.030;4.696;2023-07-22T00:36:20;16.79;107.78
16505;HTU21D;8365;51.030;4.696;2023-07-22T00:38:51;16.80;108.05
16505;HTU21D;8365;51.030;4.696;2023-07-22T00:41:22;16.63;108.81
16505;HTU21D;8365;51.030;4.696;2023-07-22T00:43:53;16.69;108.02
16505;HTU21D;8365;51.030;4.696;2023-07-22T00:46:23;16.67;108.87
16505;HTU21D;8365;51.030;4.696;2023-07-22T00:48:56;16.91;107.98
16505;HTU21D;8365;51.030;4.696;2023-07-22T00:51:26;16.98;107.35
16505;HTU21D;8365;51.030;4.696;2023-07-22T00:53:57;17.02;106.88
16505;HTU21D;8365;51.030;4.696;2023-07-22T00:56:28;17.07;107.11
16505;HTU21D;8365;51.030;4.696;2023-07-22T00:59:01;17.08;106.99
16505;HTU21D;8365;51.030;4.696;2023-07-22T01:01:32;16.86;108.25
16505;HTU21D;8365;51.030;4.696;2023-07-22T01:04:02;17.09;107.04
16505;HTU21D;8365;51.030;4.696;2023-07-22T01:06:35;17.23;105.53
16505;HTU21D;8365;51.030;4.696;2023-07-22T01:09:05;17.32;105.59
16505;HTU21D;8365;51.030;4.696;2023-07-22T01:11:39;17.43;104.86
16505;HTU21D;8365;51.030;4.696;2023-07-22T01:14:10;17.26;104.88
16505;HTU21D;8365;51.030;4.696;2023-07-22T01:16:42;17.24;105.41
16505;HTU21D;8365;51.030;4.696;2023-07-22T01:19:14;17.15;105.50
16505;HTU21D;8365;51.030;4.696;2023-07-22T01:21:52;17.26;105.86
16505;HTU21D;8365;51.030;4.696;2023-07-22T01:24:26;17.37;105.08
16505;HTU21D;8365;51.030;4.696;2023-07-22T01:26:57;17.49;104.62
16505;HTU21D;8365;51.030;4.696;2023-07-22T01:29:27;17.52;103.91
16505;HTU21D;8365;51.030;4.696;2023-07-22T01:31:58;17.45;105.71
16505;HTU21D;8365;51.030;4.696;2023-07-22T01:34:30;17.29;105.89
16505;HTU21D;8365;51.030;4.696;2023-07-22T01:37:01;17.36;105.31
16505;HTU21D;8365;51.030;4.696;2023-07-22T01:39:32;17.15;105.82
16505;HTU21D;8365;51.030;4.696;2023-07-22T01:42:03;17.15;105.89
16505;HTU21D;8365;51.030;4.696;2023-07-22T01:44:34;16.79;108.59
16505;HTU21D;8365;51.030;4.696;2023-07-22T01:47:04;16.71;108.37
16505;HTU21D;8365;51.030;4.696;2023-07-22T01:49:35;16.84;106.98
16505;HTU21D;8365;51.030;4.696;2023-07-22T01:52:05;16.76;107.61
16505;HTU21D;8365;51.030;4.696;2023-07-22T01:54:36;16.80;106.94
16505;HTU21D;8365;51.030;4.696;2023-07-22T01:57:08;16.72;108.35
16505;HTU21D;8365;51.030;4.696;2023-07-22T01:59:41;16.67;109.11
16505;HTU21D;8365;51.030;4.696;2023-07-22T02:02:11;16.73;108.44
16505;HTU21D;8365;51.030;4.696;2023-07-22T02:04:42;16.80;107.88
16505;HTU21D;8365;51.030;4.696;2023-07-22T02:07:15;16.71;109.10
16505;HTU21D;8365;51.030;4.696;2023-07-22T02:09:48;16.88;107.06
16505;HTU21D;8365;51.030;4.696;2023-07-22T02:12:22;16.79;109.24
16505;HTU21D;8365;51.030;4.696;2023-07-22T02:14:53;16.52;110.23
16505;HTU21D;8365;51.030;4.696;2023-07-22T02:17:24;16.54;110.22
16505;HTU21D;8365;51.030;4.696;2023-07-22T02:19:57;16.46;110.26
16505;HTU21D;8365;51.030;4.696;2023-07-22T02:22:27;16.21;112.58
16505;HTU21D;8365;51.030;4.696;2023-07-22T02:24:58;16.24;112.48
16505;HTU21D;8365;51.030;4.696;2023-07-22T02:27:29;16.26;111.60
16505;HTU21D;8365;51.030;4.696;2023-07-22T02:29:59;16.20;112.73
16505;HTU21D;8365;51.030;4.696;2023-07-22T02:32:31;16.13;113.72
16505;HTU21D;8365;51.030;4.696;2023-07-22T02:35:02;15.95;115.25
16505;HTU21D;8365;51.030;4.696;2023-07-22T02:37:36;16.02;113.71
16505;HTU21D;8365;51.030;4.696;2023-07-22T02:40:07;15.76;116.34
16505;HTU21D;8365;51.030;4.696;2023-07-22T02:42:39;15.98;114.22
16505;HTU21D;8365;51.030;4.696;2023-07-22T02:45:12;15.90;114.69
16505;HTU21D;8365;51.030;4.696;2023-07-22T02:47:43;15.58;116.93
16505;HTU21D;8365;51.030;4.696;2023-07-22T02:50:13;15.58;118.39
16505;HTU21D;8365;51.030;4.696;2023-07-22T02:52:49;15.53;117.31
16505;HTU21D;8365;51.030;4.696;2023-07-22T02:55:20;15.62;116.61
16505;HTU21D;8365;51.030;4.696;2023-07-22T02:57:51;15.63;116.72
16505;HTU21D;8365;51.030;4.696;2023-07-22T03:00:21;15.34;118.49
16505;HTU21D;8365;51.030;4.696;2023-07-22T03:02:56;15.38;118.99
16505;HTU21D;8365;51.030;4.696;2023-07-22T03:05:36;15.36;118.77
16505;HTU21D;8365;51.030;4.696;2023-07-22T03:08:11;15.36;118.75
16505;HTU21D;8365;51.030;4.696;2023-07-22T03:10:42;15.36;118.99
16505;HTU21D;8365;51.030;4.696;2023-07-22T03:13:17;15.32;118.61
16505;HTU21D;8365;51.030;4.696;2023-07-22T03:15:48;15.29;118.99
16505;HTU21D;8365;51.030;4.696;2023-07-22T03:18:18;15.25;118.99
16505;HTU21D;8365;51.030;4.696;2023-07-22T03:20:50;15.23;118.99
16505;HTU21D;8365;51.030;4.696;2023-07-22T03:23:22;15.16;118.99
16505;HTU21D;8365;51.030;4.696;2023-07-22T03:25:54;15.22;118.99
16505;HTU21D;8365;51.030;4.696;2023-07-22T03:28:24;15.26;118.99
16505;HTU21D;8365;51.030;4.696;2023-07-22T03:30:56;15.40;118.99
16505;HTU21D;8365;51.030;4.696;2023-07-22T03:33:26;15.40;118.99
16505;HTU21D;8365;51.030;4.696;2023-07-22T03:35:59;15.42;118.75
16505;HTU21D;8365;51.030;4.696;2023-07-22T03:38:29;15.52;118.43
16505;HTU21D;8365;51.030;4.696;2023-07-22T03:41:03;15.17;118.99
16505;HTU21D;8365;51.030;4.696;2023-07-22T03:43:33;15.11;118.99
16505;HTU21D;8365;51.030;4.696;2023-07-22T03:46:04;15.08;118.99
16505;HTU21D;8365;51.030;4.696;2023-07-22T03:48:35;15.17;118.99
16505;HTU21D;8365;51.030;4.696;2023-07-22T03:51:05;15.15;118.99
16505;HTU21D;8365;51.030;4.696;2023-07-22T03:53:35;15.19;118.99
16505;HTU21D;8365;51.030;4.696;2023-07-22T03:56:06;15.22;118.99
16505;HTU21D;8365;51.030;4.696;2023-07-22T03:58:36;15.04;118.99
16505;HTU21D;8365;51.030;4.696;2023-07-22T04:01:12;15.19;118.99
16505;HTU21D;8365;51.030;4.696;2023-07-22T04:03:43;14.99;118.99
16505;HTU21D;8365;51.030;4.696;2023-07-22T04:06:16;14.86;118.99
16505;HTU21D;8365;51.030;4.696;2023-07-22T04:08:46;14.85;118.99
16505;HTU21D;8365;51.030;4.696;2023-07-22T04:11:17;14.85;118.99
16505;HTU21D;8365;51.030;4.696;2023-07-22T04:13:47;14.82;118.99
16505;HTU21D;8365;51.030;4.696;2023-07-22T04:16:19;14.73;118.99
16505;HTU21D;8365;51.030;4.696;2023-07-22T04:18:49;14.62;118.99
16505;HTU21D;8365;51.030;4.696;2023-07-22T04:21:20;14.80;118.99
16505;HTU21D;8365;51.030;4.696;2023-07-22T04:23:50;14.99;118.99
16505;HTU21D;8365;51.030;4.696;2023-07-22T04:26:21;14.85;118.99
16505;HTU21D;8365;51.030;4.696;2023-07-22T04:28:56;14.84;118.99
16505;HTU21D;8365;51.030;4.696;2023-07-22T04:31:32;14.75;118.99
16505;HTU21D;8365;51.030;4.696;2023-07-22T04:34:03;14.89;118.99
16505;HTU21D;8365;51.030;4.696;2023-07-22T04:36:35;14.94;118.99
16505;HTU21D;8365;51.030;4.696;2023-07-22T04:39:07;14.96;118.99
16505;HTU21D;8365;51.030;4.696;2023-07-22T04:41:38;15.01;118.99
16505;HTU21D;8365;51.030;4.696;2023-07-22T04:44:09;15.07;118.99
16505;HTU21D;8365;51.030;4.696;2023-07-22T04:46:40;15.17;118.99
16505;HTU21D;8365;51.030;4.696;2023-07-22T04:49:11;15.18;118.99
16505;HTU21D;8365;51.030;4.696;2023-07-22T04:51:41;15.19;118.99
16505;HTU21D;8365;51.030;4.696;2023-07-22T04:54:12;15.30;118.99
16505;HTU21D;8365;51.030;4.696;2023-07-22T04:56:42;15.22;118.99
16505;HTU21D;8365;51.030;4.696;2023-07-22T04:59:13;15.18;118.99
16505;HTU21D;8365;51.030;4.696;2023-07-22T05:01:45;15.29;118.99
16505;HTU21D;8365;51.030;4.696;2023-07-22T05:04:15;15.42;118.99
16505;HTU21D;8365;51.030;4.696;2023-07-22T05:06:48;15.57;118.99
16505;HTU21D;8365;51.030;4.696;2023-07-22T05:09:20;15.40;118.99
16505;HTU21D;8365;51.030;4.696;2023-07-22T05:11:51;15.32;118.99
16505;HTU21D;8365;51.030;4.696;2023-07-22T05:14:21;15.49;118.99
16505;HTU21D;8365;51.030;4.696;2023-07-22T05:16:54;15.56;118.99
16505;HTU21D;8365;51.030;4.696;2023-07-22T05:19:24;15.43;118.99
16505;HTU21D;8365;51.030;4.696;2023-07-22T05:21:55;15.42;118.99
16505;HTU21D;8365;51.030;4.696;2023-07-22T05:24:26;15.54;118.99
16505;HTU21D;8365;51.030;4.696;2023-07-22T05:26:58;15.57;118.99
16505;HTU21D;8365;51.030;4.696;2023-07-22T05:29:28;15.38;118.99
16505;HTU21D;8365;51.030;4.696;2023-07-22T05:31:59;15.51;118.99
16505;HTU21D;8365;51.030;4.696;2023-07-22T05:34:29;15.37;118.99
16505;HTU21D;8365;51.030;4.696;2023-07-22T05:36:59;15.40;118.99
16505;HTU21D;8365;51.030;4.696;2023-07-22T05:39:30;15.36;118.99
16505;HTU21D;8365;51.030;4.696;2023-07-22T05:42:00;15.41;118.99
16505;HTU21D;8365;51.030;4.696;2023-07-22T05:44:31;15.44;118.99
16505;HTU21D;8365;51.030;4.696;2023-07-22T05:47:01;15.56;118.99
16505;HTU21D;8365;51.030;4.696;2023-07-22T05:49:32;15.66;118.99
16505;HTU21D;8365;51.030;4.696;2023-07-22T05:52:02;15.71;118.99
16505;HTU21D;8365;51.030;4.696;2023-07-22T05:54:33;15.67;118.99
16505;HTU21D;8365;51.030;4.696;2023-07-22T05:57:04;15.91;118.99
16505;HTU21D;8365;51.030;4.696;2023-07-22T05:59:34;15.78;118.99
16505;HTU21D;8365;51.030;4.696;2023-07-22T06:02:08;15.78;118.99
16505;HTU21D;8365;51.030;4.696;2023-07-22T06:04:38;15.81;118.99
16505;HTU21D;8365;51.030;4.696;2023-07-22T06:07:14;15.90;118.99
16505;HTU21D;8365;51.030;4.696;2023-07-22T06:09:47;16.18;118.99
16505;HTU21D;8365;51.030;4.696;2023-07-22T06:12:20;16.14;118.99
16505;HTU21D;8365;51.030;4.696;2023-07-22T06:14:51;16.06;118.99
16505;HTU21D;8365;51.030;4.696;2023-07-22T06:17:22;16.28;118.99
16505;HTU21D;8365;51.030;4.696;2023-07-22T06:19:54;16.33;118.99
16505;HTU21D;8365;51.030;4.696;2023-07-22T06:22:24;16.50;118.99
16505;HTU21D;8365;51.030;4.696;2023-07-22T06:24:55;16.58;118.99
16505;HTU21D;8365;51.030;4.696;2023-07-22T06:27:25;16.71;118.99
16505;HTU21D;8365;51.030;4.696;2023-07-22T06:29:56;16.79;118.99
16505;HTU21D;8365;51.030;4.696;2023-07-22T06:32:27;16.70;118.99
16505;HTU21D;8365;51.030;4.696;2023-07-22T06:35:00;17.02;118.99
16505;HTU21D;8365;51.030;4.696;2023-07-22T06:37:30;16.96;118.99
16505;HTU21D;8365;51.030;4.696;2023-07-22T06:40:01;17.13;118.99
16505;HTU21D;8365;51.030;4.696;2023-07-22T06:42:33;17.36;118.99
16505;HTU21D;8365;51.030;4.696;2023-07-22T06:45:04;17.35;118.99
16505;HTU21D;8365;51.030;4.696;2023-07-22T06:47:35;17.47;118.08
16505;HTU21D;8365;51.030;4.696;2023-07-22T06:50:06;17.69;118.69
16505;HTU21D;8365;51.030;4.696;2023-07-22T06:52:37;17.73;117.50
16505;HTU21D;8365;51.030;4.696;2023-07-22T06:55:07;17.67;118.87
16505;HTU21D;8365;51.030;4.696;2023-07-22T06:57:40;17.70;118.45
16505;HTU21D;8365;51.030;4.696;2023-07-22T07:00:10;17.93;116.57
16505;HTU21D;8365;51.030;4.696;2023-07-22T07:02:41;17.97;118.17
16505;HTU21D;8365;51.030;4.696;2023-07-22T07:05:14;17.85;117.89
16505;HTU21D;8365;51.030;4.696;2023-07-22T07:07:48;17.94;117.24
16505;HTU21D;8365;51.030;4.696;2023-07-22T07:10:19;18.08;117.49
16505;HTU21D;8365;51.030;4.696;2023-07-22T07:12:50;18.07;116.70
16505;HTU21D;8365;51.030;4.696;2023-07-22T07:15:20;18.12;115.89
16505;HTU21D;8365;51.030;4.696;2023-07-22T07:17:53;18.35;114.65
16505;HTU21D;8365;51.030;4.696;2023-07-22T07:20:24;18.38;114.99
16505;HTU21D;8365;51.030;4.696;2023-07-22T07:22:57;18.41;114.99
16505;HTU21D;8365;51.030;4.696;2023-07-22T07:25:28;18.56;114.88
16505;HTU21D;8365;51.030;4.696;2023-07-22T07:27:58;18.34;114.97
16505;HTU21D;8365;51.030;4.696;2023-07-22T07:30:29;18.29;115.24
16505;HTU21D;8365;51.030;4.696;2023-07-22T07:32:59;18.42;116.02
16505;HTU21D;8365;51.030;4.696;2023-07-22T07:35:32;18.42;115.01
16505;HTU21D;8365;51.030;4.696;2023-07-22T07:38:02;18.08;118.08
16505;HTU21D;8365;51.030;4.696;2023-07-22T07:40:33;17.96;118.09
16505;HTU21D;8365;51.030;4.696;2023-07-22T07:43:04;17.92;118.40
16505;HTU21D;8365;51.030;4.696;2023-07-22T07:45:38;18.06;118.60
16505;HTU21D;8365;51.030;4.696;2023-07-22T07:48:09;18.40;116.89
16505;HTU21D;8365;51.030;4.696;2023-07-22T07:50:39;18.52;114.27
16505;HTU21D;8365;51.030;4.696;2023-07-22T07:53:11;18.80;112.18
16505;HTU21D;8365;51.030;4.696;2023-07-22T07:55:41;18.55;112.22
16505;HTU21D;8365;51.030;4.696;2023-07-22T07:58:12;18.78;112.06
16505;HTU21D;8365;51.030;4.696;2023-07-22T08:00:42;18.65;112.52
16505;HTU21D;8365;51.030;4.696;2023-07-22T08:03:15;18.94;112.35
16505;HTU21D;8365;51.030;4.696;2023-07-22T08:05:45;18.76;111.00
16505;HTU21D;8365;51.030;4.696;2023-07-22T08:08:16;18.55;110.87
16505;HTU21D;8365;51.030;4.696;2023-07-22T08:10:57;18.59;111.24
16505;HTU21D;8365;51.030;4.696;2023-07-22T08:13:28;18.65;111.55
16505;HTU21D;8365;51.030;4.696;2023-07-22T08:16:01;18.61;112.45
16505;HTU21D;8365;51.030;4.696;2023-07-22T08:18:34;18.50;113.03
16505;HTU21D;8365;51.030;4.696;2023-07-22T08:21:06;18.51;112.39
16505;HTU21D;8365;51.030;4.696;2023-07-22T08:23:38;18.78;112.37
16505;HTU21D;8365;51.030;4.696;2023-07-22T08:26:08;18.79;111.05
16505;HTU21D;8365;51.030;4.696;2023-07-22T08:28:41;18.81;110.83
16505;HTU21D;8365;51.030;4.696;2023-07-22T08:31:12;18.61;111.64
16505;HTU21D;8365;51.030;4.696;2023-07-22T08:33:42;18.71;111.17
16505;HTU21D;8365;51.030;4.696;2023-07-22T08:36:13;18.79;112.03
16505;HTU21D;8365;51.030;4.696;2023-07-22T08:38:43;19.05;111.29
16505;HTU21D;8365;51.030;4.696;2023-07-22T08:41:16;19.14;109.99
16505;HTU21D;8365;51.030;4.696;2023-07-22T08:43:48;18.74;110.32
16505;HTU21D;8365;51.030;4.696;2023-07-22T08:46:22;18.97;110.73
16505;HTU21D;8365;51.030;4.696;2023-07-22T08:48:53;19.08;109.17
16505;HTU21D;8365;51.030;4.696;2023-07-22T08:51:25;19.17;108.78
16505;HTU21D;8365;51.030;4.696;2023-07-22T08:53:58;18.93;110.29
16505;HTU21D;8365;51.030;4.696;2023-07-22T08:56:30;19.20;108.64
16505;HTU21D;8365;51.030;4.696;2023-07-22T08:59:01;19.57;106.05
16505;HTU21D;8365;51.030;4.696;2023-07-22T09:01:32;19.67;105.39
16505;HTU21D;8365;51.030;4.696;2023-07-22T09:04:06;19.97;105.91
16505;HTU21D;8365;51.030;4.696;2023-07-22T09:06:36;19.95;104.12
16505;HTU21D;8365;51.030;4.696;2023-07-22T09:09:08;20.32;103.15
16505;HTU21D;8365;51.030;4.696;2023-07-22T09:11:40;19.99;103.92
16505;HTU21D;8365;51.030;4.696;2023-07-22T09:14:11;20.40;102.02
16505;HTU21D;8365;51.030;4.696;2023-07-22T09:16:43;20.11;99.32
16505;HTU21D;8365;51.030;4.696;2023-07-22T09:19:14;20.27;98.66
16505;HTU21D;8365;51.030;4.696;2023-07-22T09:21:44;20.27;97.36
16505;HTU21D;8365;51.030;4.696;2023-07-22T09:24:22;20.10;95.58
16505;HTU21D;8365;51.030;4.696;2023-07-22T09:26:53;19.94;97.84
16505;HTU21D;8365;51.030;4.696;2023-07-22T09:29:36;20.24;97.20
16505;HTU21D;8365;51.030;4.696;2023-07-22T09:32:06;19.94;97.70
16505;HTU21D;8365;51.030;4.696;2023-07-22T09:34:37;20.04;96.41
16505;HTU21D;8365;51.030;4.696;2023-07-22T09:37:10;20.19;96.78
16505;HTU21D;8365;51.030;4.696;2023-07-22T09:39:46;20.16;96.33
16505;HTU21D;8365;51.030;4.696;2023-07-22T09:42:26;20.10;97.36
16505;HTU21D;8365;51.030;4.696;2023-07-22T09:44:56;20.28;97.71
16505;HTU21D;8365;51.030;4.696;2023-07-22T09:47:27;20.50;94.87
16505;HTU21D;8365;51.030;4.696;2023-07-22T09:49:58;20.54;93.66
16505;HTU21D;8365;51.030;4.696;2023-07-22T09:52:28;20.77;90.85
16505;HTU21D;8365;51.030;4.696;2023-07-22T09:54:59;20.94;90.32
16505;HTU21D;8365;51.030;4.696;2023-07-22T09:57:29;21.22;89.57
16505;HTU21D;8365;51.030;4.696;2023-07-22T10:00:00;21.37;86.86
16505;HTU21D;8365;51.030;4.696;2023-07-22T10:02:32;21.29;89.51
16505;HTU21D;8365;51.030;4.696;2023-07-22T10:05:04;21.51;89.70
16505;HTU21D;8365;51.030;4.696;2023-07-22T10:07:36;21.99;84.51
16505;HTU21D;8365;51.030;4.696;2023-07-22T10:10:09;22.68;81.42
16505;HTU21D;8365;51.030;4.696;2023-07-22T10:12:41;22.67;78.06
16505;HTU21D;8365;51.030;4.696;2023-07-22T10:15:17;23.13;72.80
16505;HTU21D;8365;51.030;4.696;2023-07-22T10:17:48;23.02;72.01
16505;HTU21D;8365;51.030;4.696;2023-07-22T10:20:19;22.83;73.35
16505;HTU21D;8365;51.030;4.696;2023-07-22T10:22:50;23.41;69.81
16505;HTU21D;8365;51.030;4.696;2023-07-22T10:25:22;23.10;65.27
16505;HTU21D;8365;51.030;4.696;2023-07-22T10:27:53;22.83;68.11
16505;HTU21D;8365;51.030;4.696;2023-07-22T10:30:24;22.69;66.91
16505;HTU21D;8365;51.030;4.696;2023-07-22T10:32:54;23.42;66.40
16505;HTU21D;8365;51.030;4.696;2023-07-22T10:38:09;23.83;60.56
16505;HTU21D;8365;51.030;4.696;2023-07-22T10:40:52;23.64;59.02
16505;HTU21D;8365;51.030;4.696;2023-07-22T10:43:27;23.16;62.90
16505;HTU21D;8365;51.030;4.696;2023-07-22T10:46:04;22.92;61.75
16505;HTU21D;8365;51.030;4.696;2023-07-22T10:48:41;23.35;61.28
16505;HTU21D;8365;51.030;4.696;2023-07-22T10:51:15;23.21;60.68
16505;HTU21D;8365;51.030;4.696;2023-07-22T10:53:48;23.09;59.30
16505;HTU21D;8365;51.030;4.696;2023-07-22T10:56:22;23.99;56.09
16505;HTU21D;8365;51.030;4.696;2023-07-22T10:58:59;24.76;51.52
16505;HTU21D;8365;51.030;4.696;2023-07-22T11:01:34;25.38;50.50
16505;HTU21D;8365;51.030;4.696;2023-07-22T11:14:46;23.84;52.01
16505;HTU21D;8365;51.030;4.696;2023-07-22T11:17:21;24.45;52.01
16505;HTU21D;8365;51.030;4.696;2023-07-22T11:20:02;24.68;49.76
16505;HTU21D;8365;51.030;4.696;2023-07-22T11:22:32;24.74;49.43
16505;HTU21D;8365;51.030;4.696;2023-07-22T11:25:03;25.49;48.34
16505;HTU21D;8365;51.030;4.696;2023-07-22T11:27:36;24.82;51.75
16505;HTU21D;8365;51.030;4.696;2023-07-22T11:30:10;25.62;46.72
16505;HTU21D;8365;51.030;4.696;2023-07-22T11:32:42;25.03;47.69
16505;HTU21D;8365;51.030;4.696;2023-07-22T11:35:17;24.94;49.24
16505;HTU21D;8365;51.030;4.696;2023-07-22T11:37:49;24.53;49.96
16505;HTU21D;8365;51.030;4.696;2023-07-22T11:40:34;25.15;48.28
16505;HTU21D;8365;51.030;4.696;2023-07-22T11:43:05;25.79;47.59
16505;HTU21D;8365;51.030;4.696;2023-07-22T11:45:38;26.75;45.45
16505;HTU21D;8365;51.030;4.696;2023-07-22T11:48:11;26.39;45.19
16505;HTU21D;8365;51.030;4.696;2023-07-22T11:50:43;26.63;44.89
16505;HTU21D;8365;51.030;4.696;2023-07-22T11:53:13;26.78;44.80
16505;HTU21D;8365;51.030;4.696;2023-07-22T11:55:45;26.02;46.25
16505;HTU21D;8365;51.030;4.696;2023-07-22T11:58:24;25.09;47.89
16505;HTU21D;8365;51.030;4.696;2023-07-22T12:01:10;26.05;47.11
16505;HTU21D;8365;51.030;4.696;2023-07-22T12:03:41;27.09;43.69
16505;HTU21D;8365;51.030;4.696;2023-07-22T12:06:13;26.38;45.41
16505;HTU21D;8365;51.030;4.696;2023-07-22T12:08:48;26.36;46.99
16505;HTU21D;8365;51.030;4.696;2023-07-22T12:11:23;25.88;45.09
16505;HTU21D;8365;51.030;4.696;2023-07-22T12:14:11;25.47;47.05
16505;HTU21D;8365;51.030;4.696;2023-07-22T12:16:42;24.98;49.45
16505;HTU21D;8365;51.030;4.696;2023-07-22T12:19:13;25.05;47.60
16505;HTU21D;8365;51.030;4.696;2023-07-22T12:21:43;25.22;46.61
16505;HTU21D;8365;51.030;4.696;2023-07-22T12:24:14;25.38;46.34
16505;HTU21D;8365;51.030;4.696;2023-07-22T12:26:47;26.01;45.94
16505;HTU21D;8365;51.030;4.696;2023-07-22T12:29:20;26.04;45.69
16505;HTU21D;8365;51.030;4.696;2023-07-22T12:31:54;26.02;45.19
16505;HTU21D;8365;51.030;4.696;2023-07-22T12:34:25;25.98;43.54
16505;HTU21D;8365;51.030;4.696;2023-07-22T12:36:55;25.25;45.85
16505;HTU21D;8365;51.030;4.696;2023-07-22T12:39:26;25.82;45.04
16505;HTU21D;8365;51.030;4.696;2023-07-22T12:41:56;26.50;42.43
16505;HTU21D;8365;51.030;4.696;2023-07-22T12:44:27;26.84;41.24
16505;HTU21D;8365;51.030;4.696;2023-07-22T12:46:57;27.41;40.15
16505;HTU21D;8365;51.030;4.696;2023-07-22T12:49:28;27.57;39.53
16505;HTU21D;8365;51.030;4.696;2023-07-22T12:52:01;27.84;39.04
16505;HTU21D;8365;51.030;4.696;2023-07-22T12:54:35;27.30;40.56
16505;HTU21D;8365;51.030;4.696;2023-07-22T12:57:06;27.90;39.85
16505;HTU21D;8365;51.030;4.696;2023-07-22T12:59:36;27.02;40.09
16505;HTU21D;8365;51.030;4.696;2023-07-22T13:02:08;26.91;41.26
16505;HTU21D;8365;51.030;4.696;2023-07-22T13:04:38;27.84;40.48
16505;HTU21D;8365;51.030;4.696;2023-07-22T13:07:09;28.16;40.75
16505;HTU21D;8365;51.030;4.696;2023-07-22T13:09:40;27.38;39.77
16505;HTU21D;8365;51.030;4.696;2023-07-22T13:12:12;27.10;40.07
16505;HTU21D;8365;51.030;4.696;2023-07-22T13:14:42;26.76;41.94
16505;HTU21D;8365;51.030;4.696;2023-07-22T13:17:14;27.58;38.54
16505;HTU21D;8365;51.030;4.696;2023-07-22T13:19:47;27.58;38.88
16505;HTU21D;8365;51.030;4.696;2023-07-22T13:22:17;27.57;37.91
16505;HTU21D;8365;51.030;4.696;2023-07-22T13:24:49;27.15;38.27
16505;HTU21D;8365;51.030;4.696;2023-07-22T13:27:21;26.97;39.97
16505;HTU21D;8365;51.030;4.696;2023-07-22T13:29:52;26.76;39.57
16505;HTU21D;8365;51.030;4.696;2023-07-22T13:32:23;26.19;41.16
16505;HTU21D;8365;51.030;4.696;2023-07-22T13:34:53;25.89;41.34
16505;HTU21D;8365;51.030;4.696;2023-07-22T13:37:24;25.57;42.77
16505;HTU21D;8365;51.030;4.696;2023-07-22T13:39:55;26.03;42.55
16505;HTU21D;8365;51.030;4.696;2023-07-22T13:42:27;25.47;43.56
16505;HTU21D;8365;51.030;4.696;2023-07-22T13:44:58;24.42;46.19
16505;HTU21D;8365;51.030;4.696;2023-07-22T13:47:28;24.21;47.51
16505;HTU21D;8365;51.030;4.696;2023-07-22T13:49:59;24.25;47.70
16505;HTU21D;8365;51.030;4.696;2023-07-22T13:52:32;24.10;48.72
16505;HTU21D;8365;51.030;4.696;2023-07-22T13:55:03;24.11;48.76
16505;HTU21D;8365;51.030;4.696;2023-07-22T13:57:34;23.66;48.89
16505;HTU21D;8365;51.030;4.696;2023-07-22T14:00:05;23.74;49.24
16505;HTU21D;8365;51.030;4.696;2023-07-22T14:02:41;23.99;50.72
16505;HTU21D;8365;51.030;4.696;2023-07-22T14:05:12;23.91;51.92
16505;HTU21D;8365;51.030;4.696;2023-07-22T14:07:42;23.94;50.88
16505;HTU21D;8365;51.030;4.696;2023-07-22T14:10:15;23.66;51.53
16505;HTU21D;8365;51.030;4.696;2023-07-22T14:12:46;23.47;51.00
16505;HTU21D;8365;51.030;4.696;2023-07-22T14:15:19;23.23;51.75
16505;HTU21D;8365;51.030;4.696;2023-07-22T14:17:49;23.08;51.55
16505;HTU21D;8365;51.030;4.696;2023-07-22T14:20:19;22.83;53.10
16505;HTU21D;8365;51.030;4.696;2023-07-22T14:22:50;22.68;54.52
16505;HTU21D;8365;51.030;4.696;2023-07-22T14:25:22;22.38;55.55
16505;HTU21D;8365;51.030;4.696;2023-07-22T14:27:55;22.06;56.30
16505;HTU21D;8365;51.030;4.696;2023-07-22T14:30:26;22.14;57.07
16505;HTU21D;8365;51.030;4.696;2023-07-22T14:32:56;21.92;57.42
16505;HTU21D;8365;51.030;4.696;2023-07-22T14:35:27;21.83;58.29
16505;HTU21D;8365;51.030;4.696;2023-07-22T14:37:57;21.84;58.54
16505;HTU21D;8365;51.030;4.696;2023-07-22T14:40:29;21.75;59.66
16505;HTU21D;8365;51.030;4.696;2023-07-22T14:42:59;21.61;61.44
16505;HTU21D;8365;51.030;4.696;2023-07-22T14:45:30;21.72;61.83
16505;HTU21D;8365;51.030;4.696;2023-07-22T14:48:00;21.73;61.12
16505;HTU21D;8365;51.030;4.696;2023-07-22T14:50:31;21.87;62.55
16505;HTU21D;8365;51.030;4.696;2023-07-22T14:53:04;21.60;62.76
16505;HTU21D;8365;51.030;4.696;2023-07-22T14:55:35;21.70;63.33
16505;HTU21D;8365;51.030;4.696;2023-07-22T14:58:06;21.63;64.46
16505;HTU21D;8365;51.030;4.696;2023-07-22T15:00:36;21.65;64.36
16505;HTU21D;8365;51.030;4.696;2023-07-22T15:03:07;21.72;64.21
16505;HTU21D;8365;51.030;4.696;2023-07-22T15:05:37;21.87;63.07
16505;HTU21D;8365;51.030;4.696;2023-07-22T15:08:10;21.93;65.39
16505;HTU21D;8365;51.030;4.696;2023-07-22T15:10:40;22.11;64.98
16505;HTU21D;8365;51.030;4.696;2023-07-22T15:13:11;22.03;66.30
16505;HTU21D;8365;51.030;4.696;2023-07-22T15:15:41;22.01;66.33
16505;HTU21D;8365;51.030;4.696;2023-07-22T15:18:12;21.92;66.45
16505;HTU21D;8365;51.030;4.696;2023-07-22T15:20:42;22.08;66.40
16505;HTU21D;8365;51.030;4.696;2023-07-22T15:23:14;21.78;66.87
16505;HTU21D;8365;51.030;4.696;2023-07-22T15:25:44;21.99;67.17
16505;HTU21D;8365;51.030;4.696;2023-07-22T15:28:15;21.78;66.65
16505;HTU21D;8365;51.030;4.696;2023-07-22T15:30:46;22.16;65.20
16505;HTU21D;8365;51.030;4.696;2023-07-22T15:33:18;22.38;63.95
16505;HTU21D;8365;51.030;4.696;2023-07-22T15:35:48;22.14;64.81
16505;HTU21D;8365;51.030;4.696;2023-07-22T15:38:19;22.16;65.04
16505;HTU21D;8365;51.030;4.696;2023-07-22T15:40:50;22.21;65.66
16505;HTU21D;8365;51.030;4.696;2023-07-22T15:43:21;22.21;65.37
16505;HTU21D;8365;51.030;4.696;2023-07-22T15:45:51;22.07;66.81
16505;HTU21D;8365;51.030;4.696;2023-07-22T15:48:22;21.92;67.16
16505;HTU21D;8365;51.030;4.696;2023-07-22T15:50:57;21.97;67.09
16505;HTU21D;8365;51.030;4.696;2023-07-22T15:53:27;22.01;67.21
16505;HTU21D;8365;51.030;4.696;2023-07-22T15:55:59;21.74;66.22
16505;HTU21D;8365;51.030;4.696;2023-07-22T15:58:29;21.70;68.60
16505;HTU21D;8365;51.030;4.696;2023-07-22T16:01:00;21.88;68.52
16505;HTU21D;8365;51.030;4.696;2023-07-22T16:03:30;21.63;68.51